Time;durP1;ratioP1;P1;durP2;ratioP2;P2;SDS_P1;SDS_P2;PMS_P1;PMS_P2;Temp;Humidity;BMP_temperature;BMP_pressure;BME280_temperature;BME280_humidity;BME280_pressure;Samples;Min_cycle;Max_cycle;Signal;HPM_P1;HPM_P2
2021/04/08 00:01:34;;;;;;;16.73;7.90;;;;;;;0.83;77.17;99748.55;1662505;86;25481;-88
2021/04/08 00:04:00;;;;;;;16.57;7.60;;;;;;;0.81;77.14;99751.22;1676292;85;25215;-86
2021/04/08 00:06:26;;;;;;;17.17;8.27;;;;;;;0.81;77.08;99748.65;1669519;85;32932;-87
2021/04/08 00:08:52;;;;;;;15.83;7.53;;;;;;;0.80;77.07;99744.92;1668691;85;31020;-86
2021/04/08 00:11:17;;;;;;;18.20;9.67;;;;;;;0.78;77.06;99754.03;1667224;85;34855;-86
2021/04/08 00:13:43;;;;;;;22.50;9.00;;;;;;;0.77;77.04;99751.13;1667183;86;25265;-86
2021/04/08 00:16:09;;;;;;;17.50;8.77;;;;;;;0.76;76.96;99747.37;1667197;86;25263;-87
2021/04/08 00:23:45;;;;;;;17.35;8.75;;;;;;;0.73;76.81;99749.70;1463993;97;25494;-85
2021/04/08 00:26:11;;;;;;;15.10;7.55;;;;;;;0.71;76.83;99749.03;1464451;97;25728;-84
2021/04/08 00:28:37;;;;;;;17.17;8.77;;;;;;;0.69;76.92;99754.74;1447976;97;25391;-89
2021/04/08 00:31:03;;;;;;;19.50;9.53;;;;;;;0.70;76.90;99751.23;1467083;97;32969;-89
2021/04/08 00:33:29;;;;;;;17.20;8.93;;;;;;;0.69;76.81;99752.17;1465487;97;31413;-86
2021/04/08 00:35:54;;;;;;;15.60;8.33;;;;;;;0.69;76.75;99752.65;1465312;97;34962;-85
2021/04/08 00:38:20;;;;;;;17.73;8.83;;;;;;;0.66;76.86;99753.22;1464766;97;25336;-86
2021/04/08 00:40:46;;;;;;;16.57;8.90;;;;;;;0.68;76.83;99751.80;1464796;97;25437;-85
2021/04/08 00:43:12;;;;;;;24.93;11.03;;;;;;;0.69;76.83;99752.65;1465096;97;33853;-86
2021/04/08 00:45:38;;;;;;;16.23;8.07;;;;;;;0.71;76.81;99767.03;1487213;95;31236;-86
2021/04/08 00:48:05;;;;;;;16.17;8.37;;;;;;;0.74;76.77;99764.69;1492576;95;34986;-86
2021/04/08 00:50:31;;;;;;;17.15;8.58;;;;;;;0.76;76.76;99763.61;1504491;95;26074;-86
2021/04/08 00:53:06;;;;;;;18.57;9.20;;;;;;;0.79;76.76;99766.42;1493071;92;25386;-87
2021/04/08 00:55:36;;;;;;;20.32;9.55;;;;;;;0.82;76.72;99768.78;1521883;94;25689;-86
2021/04/08 00:58:04;;;;;;;18.37;8.33;;;;;;;0.85;76.70;99764.69;1527828;92;25382;-86
2021/04/08 01:00:36;;;;;;;16.15;9.55;;;;;;;0.87;76.61;99768.78;1562781;88;25470;-87
2021/04/08 01:03:02;;;;;;;17.67;9.30;;;;;;;0.89;76.58;99772.50;1599751;88;25441;-86
2021/04/08 01:05:29;;;;;;;16.07;7.72;;;;;;;0.93;76.49;99771.80;1601079;88;25825;-86
2021/04/08 01:07:55;;;;;;;16.37;8.65;;;;;;;0.97;76.47;99771.45;1600114;88;26452;-86
2021/04/08 01:10:24;;;;;;;16.53;8.70;;;;;;;1.00;76.31;99771.20;1600286;85;31128;-86
2021/04/08 01:12:55;;;;;;;18.33;9.00;;;;;;;1.03;76.26;99767.11;1714553;83;25433;-88
2021/04/08 01:15:23;;;;;;;18.95;9.23;;;;;;;1.07;76.17;99771.09;1714583;83;25241;-88
2021/04/08 01:18:04;;;;;;;18.50;9.23;;;;;;;1.08;76.04;99768.86;1715767;83;25289;-88
2021/04/08 01:20:47;;;;;;;17.42;8.60;;;;;;;1.08;76.01;99770.15;1706935;83;25646;-88
2021/04/08 01:24:03;;;;;;;17.73;9.25;;;;;;;1.11;76.06;99776.34;1712263;83;25269;-88
2021/04/08 01:26:57;;;;;;;16.85;9.03;;;;;;;1.14;75.93;99778.33;1705533;83;25395;-87
2021/04/08 01:29:57;;;;;;;21.50;9.55;;;;;;;1.15;75.88;99770.51;1714831;83;25209;-88
2021/04/08 01:32:28;;;;;;;18.92;10.08;;;;;;;1.18;75.89;99768.16;1715019;83;25275;-88
2021/04/08 01:34:58;;;;;;;22.10;9.60;;;;;;;1.18;75.64;99765.59;1715029;83;25741;-85
2021/04/08 01:37:42;;;;;;;16.10;9.95;;;;;;;1.19;75.71;99770.61;1715445;83;25671;-87
2021/04/08 01:40:09;;;;;;;21.60;10.45;;;;;;;1.18;75.62;99768.16;1716078;83;25255;-90
2021/04/08 01:42:36;;;;;;;16.40;9.75;;;;;;;1.18;75.67;99771.55;1716783;82;25275;-89
2021/04/08 01:45:03;;;;;;;19.73;10.30;;;;;;;1.20;75.63;99767.55;1716799;83;25305;-88
2021/04/08 01:47:31;;;;;;;17.92;8.88;;;;;;;1.22;75.59;99769.55;1717198;83;25577;-89
2021/04/08 01:49:58;;;;;;;15.75;10.00;;;;;;;1.26;75.64;99767.10;1717553;83;25264;-92
2021/04/08 01:52:28;;;;;;;17.62;9.10;;;;;;;1.31;75.56;99772.70;1772969;79;56890;-78
2021/04/08 01:54:58;;;;;;;17.50;10.48;;;;;;;1.29;75.45;99779.25;1733826;80;25806;-78
2021/04/08 01:57:26;;;;;;;17.98;10.03;;;;;;;1.29;75.47;99768.14;1730700;82;25708;-78
2021/04/08 01:59:54;;;;;;;16.45;10.35;;;;;;;1.35;75.53;99772.80;1785993;79;25601;-78
2021/04/08 02:02:21;;;;;;;16.82;9.18;;;;;;;1.37;75.25;99780.42;1787754;79;25736;-78
2021/04/08 02:04:48;;;;;;;15.95;9.13;;;;;;;1.36;75.17;99776.19;1789692;79;25765;-78
2021/04/08 02:07:16;;;;;;;18.45;9.75;;;;;;;1.34;75.24;99775.04;1787367;79;25964;-78
2021/04/08 02:09:43;;;;;;;17.07;10.05;;;;;;;1.35;75.07;99775.85;1733909;80;25323;-78
2021/04/08 02:12:10;;;;;;;16.48;9.83;;;;;;;1.36;75.24;99783.91;1763693;79;25910;-78
2021/04/08 02:14:39;;;;;;;17.80;9.98;;;;;;;1.37;75.08;99783.81;1765000;79;25389;-78
2021/04/08 02:17:06;;;;;;;18.85;10.23;;;;;;;1.38;75.17;99778.99;1743543;80;26379;-78
2021/04/08 02:19:33;;;;;;;18.80;9.93;;;;;;;1.41;75.15;99782.61;1764158;79;25760;-78
2021/04/08 02:22:03;;;;;;;16.52;10.03;;;;;;;1.41;75.06;99779.22;1762740;79;25755;-78
2021/04/08 02:24:31;;;;;;;18.67;10.53;;;;;;;1.42;74.92;99779.12;1766512;78;25610;-78
2021/04/08 02:27:01;;;;;;;19.10;10.35;;;;;;;1.44;74.99;99781.55;1767095;80;25867;-78
2021/04/08 02:29:28;;;;;;;18.32;10.90;;;;;;;1.46;74.91;99786.13;1766523;79;25692;-78
2021/04/08 02:31:55;;;;;;;17.37;11.18;;;;;;;1.44;74.96;99787.52;1765577;79;26017;-78
2021/04/08 02:34:21;;;;;;;18.45;10.25;;;;;;;1.47;74.96;99790.32;1740430;80;25778;-78
2021/04/08 02:36:47;;;;;;;18.57;11.30;;;;;;;1.47;75.04;99785.17;1765613;79;26498;-78
2021/04/08 02:39:13;;;;;;;21.90;12.30;;;;;;;1.47;75.03;99784.73;1765189;79;31408;-78
2021/04/08 02:41:45;;;;;;;16.20;10.50;;;;;;;1.45;75.03;99784.50;1761972;79;34995;-78
2021/04/08 02:44:14;;;;;;;21.12;11.33;;;;;;;1.45;75.05;99788.36;1764579;79;25763;-78
2021/04/08 02:46:40;;;;;;;20.00;10.72;;;;;;;1.37;75.41;99775.27;1764172;79;25451;-78
2021/04/08 02:49:07;;;;;;;18.10;11.15;;;;;;;1.42;75.03;99791.99;1765461;80;26459;-78
2021/04/08 02:51:44;;;;;;;17.02;10.03;;;;;;;1.39;75.04;99794.81;1764260;79;25661;-78
2021/04/08 02:54:36;;;;;;;22.15;11.28;;;;;;;1.37;75.02;99797.97;1766148;79;25371;-78
2021/04/08 02:57:03;;;;;;;20.60;10.98;;;;;;;1.32;75.24;99794.45;1765795;79;25684;-78
2021/04/08 02:59:41;;;;;;;18.50;10.93;;;;;;;1.30;75.29;99791.17;1764294;79;25324;-78
2021/04/08 03:02:10;;;;;;;19.82;11.43;;;;;;;1.28;75.26;99793.07;1766473;79;25629;-78
2021/04/08 03:04:47;;;;;;;23.10;11.85;;;;;;;1.28;75.33;99789.66;1764884;79;25934;-78
2021/04/08 03:07:19;;;;;;;17.15;10.80;;;;;;;1.28;75.30;99793.52;1766634;79;25309;-77
2021/04/08 03:09:45;;;;;;;18.85;10.53;;;;;;;1.25;75.35;99792.47;1764116;79;25885;-78
2021/04/08 03:12:15;;;;;;;21.42;11.95;;;;;;;1.23;75.33;99790.03;1766014;79;25727;-78
2021/04/08 03:14:45;;;;;;;20.02;11.90;;;;;;;1.24;75.31;99789.09;1764971;79;30699;-78
2021/04/08 03:17:14;;;;;;;20.88;10.53;;;;;;;1.21;75.37;99793.19;1746243;80;25703;-78
2021/04/08 03:19:43;;;;;;;22.02;12.03;;;;;;;1.20;75.41;99798.44;1765422;79;25301;-78
2021/04/08 03:22:10;;;;;;;20.62;11.50;;;;;;;1.19;75.50;99798.91;1764433;79;25770;-78
2021/04/08 03:24:38;;;;;;;21.60;12.18;;;;;;;1.19;75.50;99798.91;1764545;79;25697;-78
2021/04/08 03:27:07;;;;;;;21.33;11.97;;;;;;;1.07;75.40;99781.39;1764595;79;26359;-78
2021/04/08 03:29:33;;;;;;;17.67;10.70;;;;;;;1.07;75.40;99781.39;1741976;80;25925;-78
2021/04/08 03:32:01;;;;;;;24.75;12.88;;;;;;;1.21;75.69;99802.67;1765500;79;25672;-78
2021/04/08 03:34:27;;;;;;;20.60;11.53;;;;;;;1.20;75.47;99807.00;1765306;79;25824;-78
2021/04/08 03:36:53;;;;;;;20.15;11.55;;;;;;;1.21;75.62;99807.34;1763135;79;25691;-78
2021/04/08 03:39:20;;;;;;;22.10;11.83;;;;;;;1.19;75.62;99804.06;1764757;79;25866;-78
2021/04/08 03:41:47;;;;;;;18.42;11.30;;;;;;;1.18;75.63;99808.06;1765056;79;26074;-78
2021/04/08 03:44:15;;;;;;;21.42;12.98;;;;;;;1.18;75.70;99811.92;1764348;79;25751;-78
2021/04/08 03:46:45;;;;;;;18.42;11.88;;;;;;;1.18;75.69;99806.77;1764430;80;25352;-78
2021/04/08 03:49:14;;;;;;;22.95;13.00;;;;;;;1.21;75.75;99812.97;1764999;79;32590;-78
2021/04/08 03:51:42;;;;;;;19.33;11.80;;;;;;;1.08;75.58;99787.34;1765688;80;25850;-78
2021/04/08 03:54:13;;;;;;;23.55;12.85;;;;;;;1.08;75.58;99787.34;1743823;80;25715;-78
2021/04/08 03:56:46;;;;;;;21.25;12.28;;;;;;;1.20;75.78;99811.31;1766375;79;25945;-78
2021/04/08 03:59:12;;;;;;;16.97;11.00;;;;;;;1.21;75.85;99806.06;1764761;79;25657;-78
2021/04/08 04:01:39;;;;;;;17.15;11.28;;;;;;;1.24;75.89;99809.67;1764621;79;25817;-78
2021/04/08 04:04:05;;;;;;;21.57;12.10;;;;;;;1.25;75.80;99810.02;1766145;79;25777;-78
2021/04/08 04:06:35;;;;;;;20.12;12.98;;;;;;;1.30;75.80;99815.63;1764884;79;25779;-78
2021/04/08 04:09:02;;;;;;;20.10;12.45;;;;;;;1.33;75.81;99815.39;1735808;80;25888;-78
2021/04/08 04:11:31;;;;;;;21.87;12.30;;;;;;;1.38;75.83;99818.09;1735519;80;25655;-78
2021/04/08 04:14:00;;;;;;;20.08;12.50;;;;;;;1.42;75.90;99814.32;1735445;82;25708;-78
2021/04/08 04:16:30;;;;;;;18.75;12.25;;;;;;;1.39;75.78;99824.42;1764402;79;25820;-77
2021/04/08 04:18:56;;;;;;;19.07;12.37;;;;;;;1.38;75.93;99824.05;1765043;79;25726;-77
2021/04/08 04:21:23;;;;;;;18.83;12.37;;;;;;;1.40;76.07;99817.03;1746238;80;35317;-78
2021/04/08 04:23:49;;;;;;;19.20;12.28;;;;;;;1.44;76.11;99826.14;1765467;80;25744;-78
2021/04/08 04:26:14;;;;;;;22.87;12.53;;;;;;;1.45;76.08;99826.51;1763497;79;25758;-77
2021/04/08 04:28:40;;;;;;;22.30;13.03;;;;;;;1.48;76.21;99822.88;1765811;79;33156;-78
2021/04/08 04:31:06;;;;;;;18.87;12.33;;;;;;;1.51;76.16;99822.63;1764747;79;31308;-78
2021/04/08 04:33:32;;;;;;;21.12;13.15;;;;;;;1.52;76.05;99823.78;1764535;79;26483;-78
2021/04/08 04:35:58;;;;;;;19.43;12.23;;;;;;;1.45;76.09;99814.92;1766201;79;25827;-77
2021/04/08 04:38:24;;;;;;;21.73;13.30;;;;;;;1.53;76.17;99825.44;1764764;79;25806;-77
2021/04/08 04:40:50;;;;;;;23.40;11.90;;;;;;;1.54;76.17;99827.54;1765568;79;33767;-78
2021/04/08 04:43:16;;;;;;;22.33;13.53;;;;;;;1.53;76.30;99832.35;1765258;79;31342;-78
2021/04/08 04:45:42;;;;;;;20.03;12.70;;;;;;;1.52;76.25;99833.27;1765741;79;34786;-78
2021/04/08 04:48:10;;;;;;;18.43;12.03;;;;;;;1.53;76.29;99833.16;1764855;79;25714;-78
2021/04/08 04:50:36;;;;;;;21.40;13.70;;;;;;;1.55;76.51;99829.16;1742669;80;25835;-78
2021/04/08 04:53:03;;;;;;;19.53;12.60;;;;;;;1.55;76.42;99840.31;1762140;80;33655;-78
2021/04/08 04:55:30;;;;;;;22.07;14.07;;;;;;;1.54;76.54;99834.79;1764454;80;26429;-78
2021/04/08 04:57:56;;;;;;;17.60;13.13;;;;;;;1.57;76.76;99835.50;1765971;79;25592;-78
2021/04/08 05:00:23;;;;;;;17.75;13.10;;;;;;;1.57;76.76;99835.50;1765148;79;25738;-78
2021/04/08 05:02:50;;;;;;;22.15;14.23;;;;;;;1.61;76.59;99839.45;1762718;79;25627;-78
2021/04/08 05:05:17;;;;;;;17.45;11.50;;;;;;;1.61;76.55;99843.31;1765239;79;25829;-77
2021/04/08 05:07:44;;;;;;;24.67;12.75;;;;;;;1.62;76.78;99847.55;1765658;80;25735;-78
2021/04/08 05:10:11;;;;;;;21.62;13.60;;;;;;;1.64;76.61;99849.55;1763648;79;25734;-78
2021/04/08 05:12:37;;;;;;;20.08;13.93;;;;;;;1.69;76.71;99846.11;1764643;80;25775;-78
2021/04/08 05:15:05;;;;;;;25.97;13.98;;;;;;;1.63;76.90;99859.48;1763788;79;25338;-78
2021/04/08 05:17:31;;;;;;;21.07;13.88;;;;;;;1.63;76.90;99859.48;1766915;80;25670;-78
2021/04/08 05:19:57;;;;;;;21.00;14.60;;;;;;;1.61;77.39;99857.48;1764742;80;31280;-77
2021/04/08 05:22:23;;;;;;;21.42;13.80;;;;;;;1.58;77.32;99857.73;1765044;79;25313;-79
2021/04/08 05:24:49;;;;;;;23.90;14.07;;;;;;;1.58;77.34;99856.44;1765932;79;25778;-78
2021/04/08 05:27:15;;;;;;;22.93;14.37;;;;;;;1.60;77.50;99862.30;1764506;79;25887;-78
2021/04/08 05:29:41;;;;;;;19.77;14.53;;;;;;;1.61;78.05;99862.63;1763085;79;33124;-78
2021/04/08 05:32:07;;;;;;;21.73;13.93;;;;;;;1.57;78.59;99867.21;1764372;79;31879;-78
2021/04/08 05:34:34;;;;;;;22.67;15.60;;;;;;;1.58;78.40;99862.88;1765950;79;36941;-79
2021/04/08 05:37:00;;;;;;;23.13;14.73;;;;;;;1.59;78.54;99865.34;1774007;79;25682;-78
2021/04/08 05:39:26;;;;;;;22.10;16.00;;;;;;;1.63;78.62;99874.93;1766469;79;25297;-78
2021/04/08 05:41:51;;;;;;;22.77;16.03;;;;;;;1.65;78.74;99876.45;1764884;79;33162;-78
2021/04/08 05:44:17;;;;;;;22.70;16.47;;;;;;;1.66;78.84;99879.84;1767060;79;31406;-78
2021/04/08 05:46:43;;;;;;;21.33;14.37;;;;;;;1.70;78.79;99878.20;1765487;79;34910;-78
2021/04/08 05:49:09;;;;;;;23.67;15.77;;;;;;;1.66;79.26;99884.52;1764234;79;25704;-78
2021/04/08 05:51:35;;;;;;;24.30;15.83;;;;;;;1.63;79.87;99887.33;1765786;79;26479;-78
2021/04/08 05:54:01;;;;;;;22.30;14.57;;;;;;;1.57;80.18;99890.39;1760508;79;33192;-76
2021/04/08 05:56:28;;;;;;;22.70;14.70;;;;;;;1.54;80.77;99899.17;1759669;79;25727;-76
2021/04/08 05:58:53;;;;;;;20.57;14.83;;;;;;;1.46;81.21;99896.37;1758577;79;25859;-75
2021/04/08 06:01:19;;;;;;;19.20;13.90;;;;;;;1.41;81.51;99895.09;1759820;79;25890;-76
2021/04/08 06:03:45;;;;;;;19.77;14.57;;;;;;;1.38;81.91;99905.62;1759387;79;26412;-76
2021/04/08 06:06:11;;;;;;;21.87;15.00;;;;;;;1.32;82.72;99906.91;1758849;79;26421;-76
2021/04/08 06:08:37;;;;;;;22.17;15.93;;;;;;;1.28;83.02;99908.91;1761473;79;31370;-75
2021/04/08 06:11:02;;;;;;;22.93;16.63;;;;;;;1.28;82.66;99910.20;1761179;80;34977;-77
2021/04/08 06:13:28;;;;;;;20.50;15.50;;;;;;;1.32;82.62;99915.45;1759056;79;25767;-77
2021/04/08 06:15:54;;;;;;;24.33;16.43;;;;;;;1.37;82.71;99907.86;1760129;79;25789;-78
2021/04/08 06:18:20;;;;;;;26.10;16.13;;;;;;;1.39;83.08;99918.84;1759024;79;33720;-76
2021/04/08 06:20:46;;;;;;;22.60;17.05;;;;;;;1.42;82.96;99915.58;1761062;81;25692;-76
2021/04/08 06:23:12;;;;;;;21.67;14.97;;;;;;;1.46;82.97;99920.02;1762851;79;35308;-75
2021/04/08 06:25:38;;;;;;;22.43;18.07;;;;;;;1.47;83.07;99926.80;1728762;79;25928;-75
2021/04/08 06:28:04;;;;;;;25.17;18.62;;;;;;;1.48;83.40;99922.83;1759639;79;25718;-76
2021/04/08 06:30:30;;;;;;;26.57;17.80;;;;;;;1.52;83.09;99931.13;1722940;79;33052;-78
2021/04/08 06:32:56;;;;;;;22.07;16.93;;;;;;;1.55;83.30;99929.61;1758474;79;31154;-77
2021/04/08 06:35:23;;;;;;;24.07;17.60;;;;;;;1.61;83.34;99941.19;1758032;79;34825;-78
2021/04/08 06:37:53;;;;;;;26.70;18.25;;;;;;;1.63;83.36;99938.03;1730662;81;25705;-78
2021/04/08 06:40:21;;;;;;;28.50;21.20;;;;;;;1.67;83.10;99939.45;1757485;79;25295;-77
2021/04/08 06:42:53;;;;;;;30.23;21.15;;;;;;;1.70;83.44;99940.03;1759371;79;26456;-74
2021/04/08 06:45:23;;;;;;;31.17;22.13;;;;;;;1.74;83.53;99948.33;1757222;79;26473;-77
2021/04/08 06:47:54;;;;;;;30.82;23.18;;;;;;;1.58;83.81;99922.11;1759350;79;25290;-74
2021/04/08 06:50:25;;;;;;;33.13;23.25;;;;;;;1.79;83.70;99955.23;1758259;80;25792;-75
2021/04/08 06:52:51;;;;;;;;;;;;;;;1.81;83.50;99961.57;1762968;79;25870;-79
2021/04/08 06:55:20;;;;;;;33.15;23.87;;;;;;;1.81;83.32;99964.15;1759586;79;25851;-78
2021/04/08 06:57:47;;;;;;;34.13;24.57;;;;;;;1.86;83.30;99969.77;1761700;79;25333;-74
2021/04/08 07:00:16;;;;;;;30.25;23.60;;;;;;;1.88;83.65;99968.72;1760013;80;25323;-76
2021/04/08 07:02:43;;;;;;;35.17;25.72;;;;;;;1.89;83.40;99972.11;1760008;79;25277;-74
2021/04/08 07:05:10;;;;;;;33.73;24.37;;;;;;;1.93;83.41;99978.64;1760006;80;25261;-75
2021/04/08 07:07:36;;;;;;;35.20;26.55;;;;;;;1.95;83.40;99980.64;1758828;80;25694;-75
2021/04/08 07:10:03;;;;;;;35.27;24.87;;;;;;;1.98;83.31;99984.27;1759522;80;31839;-78
2021/04/08 07:12:30;;;;;;;33.55;24.50;;;;;;;2.02;83.58;99985.68;1759833;79;25802;-77
2021/04/08 07:14:56;;;;;;;32.98;24.98;;;;;;;2.06;83.82;99990.12;1758962;79;25710;-74
2021/04/08 07:17:23;;;;;;;31.87;24.67;;;;;;;2.07;84.06;99991.74;1760260;79;25859;-76
2021/04/08 07:19:49;;;;;;;35.45;27.15;;;;;;;2.10;83.73;99996.66;1760671;79;25788;-76
2021/04/08 07:22:17;;;;;;;36.17;27.27;;;;;;;2.15;83.63;99999.70;1760232;80;31360;-76
2021/04/08 07:24:47;;;;;;;38.40;29.45;;;;;;;2.30;83.89;100008.83;1760795;80;25344;-76
2021/04/08 07:27:18;;;;;;;32.28;24.47;;;;;;;2.30;83.89;100008.83;1758593;79;25911;-76
2021/04/08 07:29:48;;;;;;;31.25;25.48;;;;;;;2.33;83.70;100007.77;1753179;79;25360;-74
2021/04/08 07:32:32;;;;;;;32.65;26.60;;;;;;;2.32;83.66;100018.55;1791621;78;25798;-76
2021/04/08 07:35:18;;;;;;;27.32;20.90;;;;;;;2.28;83.62;100004.25;1795427;77;25826;-76
2021/04/08 07:37:56;;;;;;;25.92;20.57;;;;;;;2.43;83.94;100017.71;1787077;78;25779;-77
2021/04/08 07:40:27;;;;;;;27.87;18.65;;;;;;;2.48;83.80;100029.75;1795413;77;25702;-73
2021/04/08 07:42:53;;;;;;;;;;;;;;;2.53;84.24;100029.39;1800171;78;25742;-79
2021/04/08 07:45:29;;;;;;;20.43;13.95;;;;;;;2.72;84.13;100033.91;1798546;77;26553;-77
2021/04/08 07:48:05;;;;;;;21.50;15.23;;;;;;;2.72;84.13;100033.91;1796699;79;25771;-76
2021/04/08 07:50:33;;;;;;;23.90;15.98;;;;;;;2.79;84.01;100038.47;1800306;77;25874;-75
2021/04/08 07:53:00;;;;;;;22.45;17.23;;;;;;;2.84;83.89;100036.81;1797180;77;25443;-80
2021/04/08 07:55:35;;;;;;;23.83;17.65;;;;;;;2.94;83.88;100043.33;1797602;77;25766;-77
2021/04/08 07:58:13;;;;;;;25.32;18.95;;;;;;;3.01;83.84;100043.19;1797619;77;25614;-83
2021/04/08 08:00:44;;;;;;;20.48;16.17;;;;;;;2.97;83.80;100030.17;1796783;77;25711;-77
2021/04/08 08:03:27;;;;;;;21.97;17.15;;;;;;;3.16;83.56;100056.12;1795703;77;25915;-77
2021/04/08 08:06:00;;;;;;;19.67;14.20;;;;;;;3.19;83.26;100058.49;1798411;77;25886;-76
2021/04/08 08:08:39;;;;;;;13.83;9.95;;;;;;;3.20;83.25;100060.59;1797009;77;25277;-77
2021/04/08 08:11:08;;;;;;;14.40;11.68;;;;;;;3.06;82.60;100086.24;1799802;77;25606;-77
2021/04/08 08:13:51;;;;;;;16.17;12.50;;;;;;;2.71;82.24;100060.19;1795853;77;26620;-77
2021/04/08 08:16:20;;;;;;;17.05;12.10;;;;;;;2.62;82.23;100082.38;1797495;77;25364;-78
2021/04/08 08:18:48;;;;;;;18.62;13.35;;;;;;;2.49;82.81;100071.86;1801154;77;25897;-79
2021/04/08 08:21:40;;;;;;;17.80;12.70;;;;;;;2.54;83.24;100087.80;1800138;77;25765;-79
2021/04/08 08:24:13;;;;;;;21.57;15.28;;;;;;;2.52;84.22;100069.85;1797170;77;26512;-79
2021/04/08 08:26:48;;;;;;;19.02;16.17;;;;;;;2.52;84.22;100069.85;1798760;77;26293;-75
2021/04/08 08:29:24;;;;;;;23.65;17.02;;;;;;;2.51;84.42;100063.06;1798278;77;25739;-75
2021/04/08 08:31:58;;;;;;;20.30;15.50;;;;;;;2.77;84.57;100094.53;1798647;77;25763;-75
2021/04/08 08:34:32;;;;;;;22.40;16.25;;;;;;;2.82;84.82;100095.47;1800611;77;25734;-79
2021/04/08 08:37:08;;;;;;;24.18;18.52;;;;;;;2.85;84.79;100099.91;1796244;77;25786;-74
2021/04/08 08:39:43;;;;;;;19.30;16.07;;;;;;;2.92;84.71;100096.83;1799344;77;25744;-79
2021/04/08 08:42:14;;;;;;;20.10;14.07;;;;;;;2.88;84.96;100088.52;1799061;77;25811;-78
2021/04/08 08:44:43;;;;;;;18.70;13.43;;;;;;;3.03;85.16;100105.86;1798863;77;25672;-74
2021/04/08 08:47:32;;;;;;;22.48;15.60;;;;;;;3.05;84.68;100115.09;1799732;77;25731;-77
2021/04/08 08:50:10;;;;;;;18.57;14.38;;;;;;;3.07;84.81;100111.92;1802842;77;25825;-76
2021/04/08 08:52:41;;;;;;;17.30;12.70;;;;;;;3.10;84.48;100119.42;1793591;77;25300;-79
2021/04/08 08:55:14;;;;;;;14.23;10.10;;;;;;;3.13;84.94;100124.81;1806665;77;25380;-76
2021/04/08 08:57:46;;;;;;;13.98;10.20;;;;;;;3.12;85.19;100136.09;1797639;77;25680;-74
2021/04/08 09:00:15;;;;;;;14.90;10.60;;;;;;;3.09;85.10;100138.92;1798412;77;25305;-76
2021/04/08 09:02:41;;;;;;;;;;;;;;;3.03;84.54;100138.94;1799378;77;25868;-79
2021/04/08 09:05:13;;;;;;;20.53;13.83;;;;;;;3.01;84.99;100140.00;1775582;78;25322;-79
2021/04/08 09:07:40;;;;;;;20.65;14.87;;;;;;;2.96;84.58;100148.10;1796720;77;26666;-78
2021/04/08 09:10:08;;;;;;;16.87;13.20;;;;;;;2.93;84.48;100150.11;1797866;77;25295;-78
2021/04/08 09:12:34;;;;;;;21.30;14.07;;;;;;;2.86;84.40;100153.19;1800379;77;25754;-81
2021/04/08 09:15:01;;;;;;;17.27;11.97;;;;;;;2.85;84.61;100165.72;1766741;77;25719;-81
2021/04/08 09:17:45;;;;;;;11.83;7.90;;;;;;;2.85;85.09;100164.43;1798006;77;25698;-77
2021/04/08 09:20:16;;;;;;;10.55;8.10;;;;;;;2.83;85.68;100179.69;1797196;77;25772;-81
2021/04/08 09:23:08;;;;;;;14.18;9.43;;;;;;;2.74;84.70;100168.33;1796755;78;25654;-81
2021/04/08 09:25:50;;;;;;;17.55;10.60;;;;;;;2.72;84.72;100165.03;1764193;78;26479;-79
2021/04/08 09:28:18;;;;;;;11.70;8.33;;;;;;;2.68;85.27;100174.45;1798930;77;26753;-74
2021/04/08 09:33:48;;;;;;;14.53;9.83;;;;;;;2.51;84.18;100193.78;1797975;77;25800;-83
2021/04/08 09:36:26;;;;;;;12.50;8.60;;;;;;;2.39;84.15;100195.06;1796667;78;25733;-82
2021/04/08 09:39:04;;;;;;;20.17;12.55;;;;;;;2.38;84.51;100206.33;1796926;77;25830;-77
2021/04/08 09:41:53;;;;;;;21.62;13.10;;;;;;;2.36;84.37;100205.62;1796191;77;27001;-78
2021/04/08 09:44:20;;;;;;;15.10;10.55;;;;;;;2.31;84.34;100206.91;1794418;77;25763;-75
2021/04/08 09:46:54;;;;;;;17.10;9.60;;;;;;;2.30;84.34;100207.38;1797523;77;25745;-75
2021/04/08 09:49:42;;;;;;;16.93;9.90;;;;;;;2.31;84.37;100212.88;1796283;77;25750;-80
2021/04/08 09:52:13;;;;;;;13.78;8.55;;;;;;;2.29;84.38;100213.92;1793075;77;25687;-79
2021/04/08 09:54:55;;;;;;;14.20;9.60;;;;;;;2.19;84.43;100210.77;1794816;78;25847;-79
2021/04/08 09:57:41;;;;;;;11.38;8.35;;;;;;;2.04;84.10;100226.54;1793177;79;26590;-79
2021/04/08 10:00:16;;;;;;;15.55;9.00;;;;;;;2.04;84.10;100226.54;1794225;77;26295;-79
2021/04/08 10:03:34;;;;;;;11.88;8.53;;;;;;;2.01;84.39;100237.90;1792427;77;26172;-76
2021/04/08 10:06:15;;;;;;;9.40;6.75;;;;;;;1.91;84.44;100245.50;1644961;84;25824;-77
2021/04/08 10:08:41;;;;;;;12.00;7.45;;;;;;;1.83;84.77;100249.10;1646105;84;25859;-78
2021/04/08 10:11:08;;;;;;;13.13;8.23;;;;;;;1.80;84.35;100251.06;1643840;84;25318;-82
2021/04/08 10:13:36;;;;;;;10.15;7.08;;;;;;;1.76;84.42;100251.28;1647831;84;25391;-76
2021/04/08 10:16:16;;;;;;;9.88;7.12;;;;;;;1.65;84.47;100241.41;1644092;85;26526;-76
2021/04/08 10:18:43;;;;;;;;;;;;;;;1.64;84.90;100250.08;1650336;84;25816;-82
2021/04/08 10:21:18;;;;;;;11.57;8.18;;;;;;;1.60;84.99;100251.22;1645480;84;25746;-82
2021/04/08 10:23:49;;;;;;;14.70;9.93;;;;;;;1.75;85.71;100259.95;1647239;84;25926;-78
2021/04/08 10:26:18;;;;;;;12.88;9.08;;;;;;;1.75;85.71;100259.95;1643828;85;25776;-78
2021/04/08 10:28:48;;;;;;;14.55;10.05;;;;;;;1.96;86.10;100263.19;1644208;84;25833;-79
2021/04/08 10:31:21;;;;;;;14.63;9.33;;;;;;;2.15;86.68;100265.23;1649159;84;25332;-80
2021/04/08 10:33:51;;;;;;;12.70;9.03;;;;;;;2.36;87.04;100257.67;1646727;84;25828;-78
2021/04/08 10:36:34;;;;;;;16.17;8.13;;;;;;;2.81;87.33;100268.02;1645644;84;25826;-78
2021/04/08 10:39:15;;;;;;;14.13;8.83;;;;;;;2.81;87.33;100268.02;1644697;84;25790;-79
2021/04/08 10:42:04;;;;;;;11.63;8.30;;;;;;;3.01;87.68;100263.92;1642817;84;25516;-75
2021/04/08 10:44:43;;;;;;;15.05;7.75;;;;;;;3.23;87.72;100268.23;1644262;84;25904;-77
2021/04/08 10:47:24;;;;;;;13.13;7.87;;;;;;;3.43;87.66;100277.81;1644293;84;25852;-80
2021/04/08 10:49:55;;;;;;;10.60;7.78;;;;;;;3.64;87.73;100275.77;1644413;84;25913;-79
2021/04/08 10:52:23;;;;;;;;;;;;;;;3.88;88.16;100276.87;1649559;84;25383;-79
2021/04/08 10:54:54;;;;;;;10.63;6.53;;;;;;;4.04;86.57;100271.25;1647064;84;25961;-78
2021/04/08 10:57:22;;;;;;;9.70;6.87;;;;;;;4.11;86.16;100272.40;1647317;84;25829;-78
2021/04/08 10:59:50;;;;;;;10.03;6.40;;;;;;;4.18;86.14;100277.43;1643906;84;26034;-79
2021/04/08 11:02:36;;;;;;;12.80;7.03;;;;;;;4.22;85.11;100280.91;1649421;84;25785;-79
2021/04/08 11:05:07;;;;;;;12.23;6.72;;;;;;;4.25;85.02;100297.95;1667262;83;25365;-76
2021/04/08 11:07:37;;;;;;;11.20;6.47;;;;;;;4.30;84.79;100295.81;1679880;83;25780;-76
2021/04/08 11:10:19;;;;;;;11.88;6.75;;;;;;;4.47;85.57;100294.89;1679161;83;25676;-83
2021/04/08 11:12:50;;;;;;;9.85;6.83;;;;;;;4.61;85.08;100292.81;1676398;83;25777;-79
2021/04/08 11:15:22;;;;;;;12.18;6.03;;;;;;;4.71;84.41;100287.67;1682688;83;26403;-81
2021/04/08 11:17:53;;;;;;;7.80;5.80;;;;;;;4.88;84.00;100293.55;1680863;83;25843;-82
2021/04/08 11:20:32;;;;;;;10.68;5.97;;;;;;;5.11;83.85;100286.89;1675907;83;26610;-79
2021/04/08 11:22:59;;;;;;;11.22;7.35;;;;;;;5.28;81.84;100302.27;1669188;83;25856;-81
2021/04/08 11:25:28;;;;;;;12.93;6.83;;;;;;;5.33;81.10;100291.85;1668740;84;25920;-79
2021/04/08 11:27:59;;;;;;;12.25;6.92;;;;;;;5.42;80.81;100299.78;1670588;84;25995;-78
2021/04/08 11:30:39;;;;;;;10.45;5.80;;;;;;;5.60;80.72;100296.08;1667402;84;25583;-82
2021/04/08 11:33:14;;;;;;;13.93;7.70;;;;;;;5.74;80.58;100303.45;1670221;84;25867;-84
2021/04/08 11:35:43;;;;;;;9.65;6.25;;;;;;;5.91;81.27;100296.28;1671006;84;25778;-81
2021/04/08 11:38:19;;;;;;;10.90;7.08;;;;;;;5.94;78.09;100301.23;1668713;84;26491;-83
2021/04/08 11:40:49;;;;;;;14.65;7.72;;;;;;;5.87;78.14;100307.09;1670609;84;25812;-82
2021/04/08 11:43:28;;;;;;;8.03;5.20;;;;;;;5.79;78.77;100311.66;1671341;84;25857;-81
2021/04/08 11:45:58;;;;;;;6.30;4.37;;;;;;;5.77;78.58;100311.77;1671365;84;26638;-84
2021/04/08 11:48:29;;;;;;;5.87;4.03;;;;;;;5.71;78.63;100322.69;1668207;84;25777;-87
2021/04/08 11:51:06;;;;;;;6.45;3.92;;;;;;;5.68;76.47;100322.16;1670269;84;25812;-83